PWSweather.com
Personal Weather Stations
Station Observations
RAINWISE1
Rainwise Factory, Bar Harbor, ME 04609

Rainwise FactoryBar Harbor, ME 04609

Lat: 44.3897429696629, Lon: -68.2077813148499

Elevation: 29

Station Type: Rainwise MK-III

Latest ConditionsUpdated 11:14:00 PM EST Friday, Feb 23, 2018
Currently Today's Max Today's Min Today's Average
Temperature 35.2°F1.8°C 35.2°F1.8°C 18.3°F-7.6°C 27.0°F-2.8°C
Dew Point 34.7°F1.5°C 34.7°F1.5°C 12.6°F-10.8°C 19.6°F-6.9°C
Winds 7.1 mph SW11.4 kmh SW 10.9 mph SSW17.5 kmh SSW - 4.3 mph 6.9 kmh
Wind Gusts 9.8 mph15.8 kmh 15.4 mph24.8 kmh - -
Humidity 98% 98% 53% 74%
Pressure 30.06 in1017.9 mb 30.73 in1040.6 mb 30.06 in1017.9 mb -
Precipitation - 0.10 in2.5 mm - -
Hour Temp Dew Point Humidity Winds Wind Gusts Pressure Precip Precip Rate Daily Precip Total
11:14 PM 35.2°F1.8°C 34.7°F1.5°C 98% 7.1 mph SW11.4 kmh SW 9.8 mph15.8 kmh 30.06 in1017.9 mb 0.00 in0.0 mm 0.00 in0.0 mm 0.10 in2.5 mm
11:09 PM 35.1°F1.7°C 34.6°F1.4°C 98% 4.2 mph SW6.8 kmh SW 6.7 mph10.8 kmh 30.06 in1017.9 mb 0.00 in0.0 mm 0.00 in0.0 mm 0.10 in2.5 mm
11:04 PM 35.0°F1.7°C 34.5°F1.4°C 98% 4.0 mph SW6.4 kmh SW 9.3 mph15.0 kmh 30.07 in1018.3 mb 0.00 in0.0 mm 0.00 in0.0 mm 0.10 in2.5 mm
10:59 PM 35.0°F1.7°C 34.5°F1.4°C 98% 5.6 mph SW9.0 kmh SW 7.7 mph12.4 kmh 30.08 in1018.6 mb 0.00 in0.0 mm 0.00 in0.0 mm 0.09 in2.3 mm
10:54 PM 34.8°F1.6°C 34.3°F1.3°C 98% 5.3 mph SW8.5 kmh SW 7.9 mph12.7 kmh 30.07 in1018.3 mb 0.00 in0.0 mm 0.00 in0.0 mm 0.09 in2.3 mm
10:49 PM 34.7°F1.5°C 34.2°F1.2°C 98% 6.1 mph SSW9.8 kmh SSW 11.0 mph17.7 kmh 30.07 in1018.3 mb 0.00 in0.0 mm 0.00 in0.0 mm 0.09 in2.3 mm
10:44 PM 34.7°F1.5°C 34.2°F1.2°C 98% 7.2 mph SW11.6 kmh SW 10.3 mph16.6 kmh 30.07 in1018.3 mb 0.00 in0.0 mm 0.00 in0.0 mm 0.08 in2.0 mm
10:39 PM 34.6°F1.4°C 34.1°F1.2°C 98% 6.1 mph SW9.8 kmh SW 9.5 mph15.3 kmh 30.08 in1018.6 mb 0.00 in0.0 mm 0.00 in0.0 mm 0.08 in2.0 mm
10:34 PM 34.3°F1.3°C 33.5°F0.8°C 97% 8.5 mph SW13.7 kmh SW 12.8 mph20.6 kmh 30.09 in1019.0 mb 0.00 in0.0 mm 0.00 in0.0 mm 0.07 in1.8 mm
10:29 PM 34.2°F1.2°C 33.4°F0.8°C 97% 6.9 mph SSW11.1 kmh SSW 8.5 mph13.7 kmh 30.09 in1019.0 mb 0.00 in0.0 mm 0.00 in0.0 mm 0.07 in1.8 mm
10:24 PM 34.1°F1.2°C 33.3°F0.7°C 97% 6.5 mph SW10.5 kmh SW 10.6 mph17.1 kmh 30.10 in1019.3 mb 0.00 in0.0 mm 0.00 in0.0 mm 0.07 in1.8 mm
10:19 PM 33.8°F1.0°C 33.0°F0.6°C 97% 4.9 mph SW7.9 kmh SW 7.0 mph11.3 kmh 30.10 in1019.3 mb 0.00 in0.0 mm 0.00 in0.0 mm 0.06 in1.5 mm
10:14 PM 33.7°F0.9°C 32.9°F0.5°C 97% 8.1 mph SW13.0 kmh SW 15.4 mph24.8 kmh 30.10 in1019.3 mb 0.00 in0.0 mm 0.00 in0.0 mm 0.05 in1.3 mm
10:09 PM 33.7°F0.9°C 32.9°F0.5°C 97% 5.6 mph SW9.0 kmh SW 7.7 mph12.4 kmh 30.11 in1019.6 mb 0.00 in0.0 mm 0.00 in0.0 mm 0.04 in1.0 mm
10:04 PM 33.5°F0.8°C 32.7°F0.4°C 97% 5.7 mph SSW9.2 kmh SSW 9.3 mph15.0 kmh 30.11 in1019.6 mb 0.00 in0.0 mm 0.00 in0.0 mm 0.03 in0.8 mm
09:59 PM 33.4°F0.8°C 32.6°F0.3°C 97% 6.2 mph SW10.0 kmh SW 9.0 mph14.5 kmh 30.12 in1020.0 mb 0.00 in0.0 mm 0.00 in0.0 mm 0.02 in0.5 mm
09:54 PM 33.3°F0.7°C 32.3°F0.2°C 96% 6.3 mph SSW10.1 kmh SSW 8.4 mph13.5 kmh 30.13 in1020.3 mb 0.00 in0.0 mm 0.00 in0.0 mm 0.01 in0.3 mm
09:49 PM 33.2°F0.7°C 32.2°F0.1°C 96% 4.7 mph SW7.6 kmh SW 6.7 mph10.8 kmh 30.13 in1020.3 mb 0.00 in0.0 mm 0.00 in0.0 mm 0.01 in0.3 mm
09:44 PM 33.2°F0.7°C 32.2°F0.1°C 96% 6.4 mph SSW10.3 kmh SSW 10.6 mph17.1 kmh 30.14 in1020.7 mb 0.00 in0.0 mm 0.00 in0.0 mm 0.01 in0.3 mm
09:39 PM 33.2°F0.7°C 32.2°F0.1°C 96% 5.3 mph SW8.5 kmh SW 7.5 mph12.1 kmh 30.15 in1021.0 mb 0.00 in0.0 mm 0.00 in0.0 mm 0.00 in0.0 mm
09:34 PM 33.2°F0.7°C 32.2°F0.1°C 96% 5.3 mph SW8.5 kmh SW 7.2 mph11.6 kmh 30.15 in1021.0 mb 0.00 in0.0 mm 0.00 in0.0 mm 0.00 in0.0 mm
09:29 PM 33.2°F0.7°C 32.2°F0.1°C 96% 9.1 mph SSW14.6 kmh SSW 12.5 mph20.1 kmh 30.15 in1021.0 mb 0.00 in0.0 mm 0.00 in0.0 mm 0.00 in0.0 mm
09:24 PM 33.1°F0.6°C 31.8°F-0.1°C 95% 8.0 mph SW12.9 kmh SW 11.1 mph17.9 kmh 30.16 in1021.3 mb 0.00 in0.0 mm 0.00 in0.0 mm 0.00 in0.0 mm
09:19 PM 33.1°F0.6°C 31.8°F-0.1°C 95% 8.5 mph SSW13.7 kmh SSW 10.3 mph16.6 kmh 30.17 in1021.7 mb 0.00 in0.0 mm 0.00 in0.0 mm 0.00 in0.0 mm
09:14 PM 33.0°F0.6°C 31.7°F-0.2°C 95% 7.8 mph SSW12.6 kmh SSW 10.6 mph17.1 kmh 30.17 in1021.7 mb 0.00 in0.0 mm 0.00 in0.0 mm 0.00 in0.0 mm
09:09 PM 33.0°F0.6°C 31.7°F-0.2°C 95% 5.4 mph SW8.7 kmh SW 8.4 mph13.5 kmh 30.18 in1022.0 mb 0.00 in0.0 mm 0.00 in0.0 mm 0.00 in0.0 mm
09:04 PM 33.0°F0.6°C 31.5°F-0.3°C 94% 6.9 mph SW11.1 kmh SW 11.9 mph19.2 kmh 30.18 in1022.0 mb 0.00 in0.0 mm 0.00 in0.0 mm 0.00 in0.0 mm
08:59 PM 32.8°F0.4°C 31.3°F-0.4°C 94% 6.9 mph SSW11.1 kmh SSW 9.0 mph14.5 kmh 30.18 in1022.0 mb 0.00 in0.0 mm 0.00 in0.0 mm 0.00 in0.0 mm
08:54 PM 32.8°F0.4°C 31.0°F-0.6°C 93% 7.6 mph SSW12.2 kmh SSW 11.1 mph17.9 kmh 30.18 in1022.0 mb 0.00 in0.0 mm 0.00 in0.0 mm 0.00 in0.0 mm
08:49 PM 32.7°F0.4°C 30.9°F-0.6°C 93% 5.2 mph SW8.4 kmh SW 7.0 mph11.3 kmh 30.18 in1022.0 mb 0.00 in0.0 mm 0.00 in0.0 mm 0.00 in0.0 mm
08:44 PM 32.7°F0.4°C 30.9°F-0.6°C 93% 5.1 mph SSW8.2 kmh SSW 7.2 mph11.6 kmh 30.19 in1022.4 mb 0.00 in0.0 mm 0.00 in0.0 mm 0.00 in0.0 mm
08:39 PM 32.7°F0.4°C 30.6°F-0.8°C 92% 6.0 mph SW9.7 kmh SW 8.9 mph14.3 kmh 30.20 in1022.7 mb 0.00 in0.0 mm 0.00 in0.0 mm 0.00 in0.0 mm
08:34 PM 32.6°F0.3°C 30.5°F-0.8°C 92% 5.2 mph SSW8.4 kmh SSW 6.2 mph10.0 kmh 30.20 in1022.7 mb 0.00 in0.0 mm 0.00 in0.0 mm 0.00 in0.0 mm
08:29 PM 32.5°F0.3°C 30.2°F-1.0°C 91% 6.0 mph SSW9.7 kmh SSW 7.5 mph12.1 kmh 30.20 in1022.7 mb 0.00 in0.0 mm 0.00 in0.0 mm 0.00 in0.0 mm
08:24 PM 32.5°F0.3°C 30.2°F-1.0°C 91% 6.7 mph SW10.8 kmh SW 8.5 mph13.7 kmh 30.21 in1023.0 mb 0.00 in0.0 mm 0.00 in0.0 mm 0.00 in0.0 mm
08:19 PM 32.3°F0.2°C 30.0°F-1.1°C 91% 4.8 mph SSW7.7 kmh SSW 7.0 mph11.3 kmh 30.21 in1023.0 mb 0.00 in0.0 mm 0.00 in0.0 mm 0.00 in0.0 mm
08:14 PM 32.2°F0.1°C 29.6°F-1.3°C 90% 6.2 mph SW10.0 kmh SW 8.5 mph13.7 kmh 30.21 in1023.0 mb 0.00 in0.0 mm 0.00 in0.0 mm 0.00 in0.0 mm
08:09 PM 32.2°F0.1°C 29.6°F-1.3°C 90% 7.1 mph SSW11.4 kmh SSW 11.0 mph17.7 kmh 30.21 in1023.0 mb 0.00 in0.0 mm 0.00 in0.0 mm 0.00 in0.0 mm
08:04 PM 32.2°F0.1°C 29.6°F-1.3°C 90% 9.9 mph SSW15.9 kmh SSW 14.1 mph22.7 kmh 30.21 in1023.0 mb 0.00 in0.0 mm 0.00 in0.0 mm 0.00 in0.0 mm
07:59 PM 32.2°F0.1°C 29.3°F-1.5°C 89% 9.0 mph SSW14.5 kmh SSW 14.0 mph22.5 kmh 30.23 in1023.7 mb 0.00 in0.0 mm 0.00 in0.0 mm 0.00 in0.0 mm
07:54 PM 32.2°F0.1°C 29.3°F-1.5°C 89% 9.0 mph SSW14.5 kmh SSW 11.9 mph19.2 kmh 30.24 in1024.0 mb 0.00 in0.0 mm 0.00 in0.0 mm 0.00 in0.0 mm
07:49 PM 32.2°F0.1°C 29.3°F-1.5°C 89% 7.5 mph SSW12.1 kmh SSW 10.6 mph17.1 kmh 30.24 in1024.0 mb 0.00 in0.0 mm 0.00 in0.0 mm 0.00 in0.0 mm
07:44 PM 32.2°F0.1°C 29.3°F-1.5°C 89% 8.1 mph SSW13.0 kmh SSW 10.0 mph16.1 kmh 30.25 in1024.4 mb 0.00 in0.0 mm 0.00 in0.0 mm 0.00 in0.0 mm
07:39 PM 32.1°F0.1°C 29.0°F-1.7°C 88% 7.9 mph SSW12.7 kmh SSW 11.4 mph18.3 kmh 30.26 in1024.7 mb 0.00 in0.0 mm 0.00 in0.0 mm 0.00 in0.0 mm
07:34 PM 32.2°F0.1°C 29.1°F-1.6°C 88% 8.4 mph SSW13.5 kmh SSW 10.5 mph16.9 kmh 30.26 in1024.7 mb 0.00 in0.0 mm 0.00 in0.0 mm 0.00 in0.0 mm
07:29 PM 32.1°F0.1°C 29.0°F-1.7°C 88% 7.7 mph SSW12.4 kmh SSW 10.5 mph16.9 kmh 30.26 in1024.7 mb 0.00 in0.0 mm 0.00 in0.0 mm 0.00 in0.0 mm
07:24 PM 32.1°F0.1°C 29.0°F-1.7°C 88% 9.4 mph SSW15.1 kmh SSW 12.0 mph19.3 kmh 30.26 in1024.7 mb 0.00 in0.0 mm 0.00 in0.0 mm 0.00 in0.0 mm
07:19 PM 32.0°F0.0°C 28.6°F-1.9°C 87% 8.5 mph SSW13.7 kmh SSW 10.6 mph17.1 kmh 30.26 in1024.7 mb 0.00 in0.0 mm 0.00 in0.0 mm 0.00 in0.0 mm
07:14 PM 32.0°F0.0°C 28.6°F-1.9°C 87% 8.8 mph SSW14.2 kmh SSW 11.1 mph17.9 kmh 30.26 in1024.7 mb 0.00 in0.0 mm 0.00 in0.0 mm 0.00 in0.0 mm
07:09 PM 31.8°F-0.1°C 28.1°F-2.2°C 86% 10.1 mph SSW16.3 kmh SSW 13.8 mph22.2 kmh 30.27 in1025.1 mb 0.00 in0.0 mm 0.00 in0.0 mm 0.00 in0.0 mm
07:04 PM 31.8°F-0.1°C 28.1°F-2.2°C 86% 10.9 mph SSW17.5 kmh SSW 14.5 mph23.3 kmh 30.28 in1025.4 mb 0.00 in0.0 mm 0.00 in0.0 mm 0.00 in0.0 mm
06:59 PM 31.8°F-0.1°C 27.8°F-2.3°C 85% 5.8 mph SSW9.3 kmh SSW 10.3 mph16.6 kmh 30.28 in1025.4 mb 0.00 in0.0 mm 0.00 in0.0 mm 0.00 in0.0 mm
06:54 PM 31.7°F-0.2°C 27.7°F-2.4°C 85% 9.1 mph SSW14.6 kmh SSW 14.0 mph22.5 kmh 30.28 in1025.4 mb 0.00 in0.0 mm 0.00 in0.0 mm 0.00 in0.0 mm
06:49 PM 31.7°F-0.2°C 27.7°F-2.4°C 85% 7.7 mph SSW12.4 kmh SSW 10.3 mph16.6 kmh 30.28 in1025.4 mb 0.00 in0.0 mm 0.00 in0.0 mm 0.00 in0.0 mm
06:44 PM 31.7°F-0.2°C 27.4°F-2.6°C 84% 10.6 mph SSW17.1 kmh SSW 14.5 mph23.3 kmh 30.29 in1025.7 mb 0.00 in0.0 mm 0.00 in0.0 mm 0.00 in0.0 mm
06:39 PM 31.7°F-0.2°C 27.1°F-2.7°C 83% 6.0 mph SSW9.7 kmh SSW 7.0 mph11.3 kmh 30.30 in1026.1 mb 0.00 in0.0 mm 0.00 in0.0 mm 0.00 in0.0 mm
06:34 PM 31.7°F-0.2°C 27.1°F-2.7°C 83% 10.2 mph SSW16.4 kmh SSW 13.8 mph22.2 kmh 30.30 in1026.1 mb 0.00 in0.0 mm 0.00 in0.0 mm 0.00 in0.0 mm
06:29 PM 31.8°F-0.1°C 26.6°F-3.0°C 81% 8.8 mph S14.2 kmh S 11.1 mph17.9 kmh 30.30 in1026.1 mb 0.00 in0.0 mm 0.00 in0.0 mm 0.00 in0.0 mm
06:24 PM 31.8°F-0.1°C 26.6°F-3.0°C 81% 8.9 mph S14.3 kmh S 12.5 mph20.1 kmh 30.32 in1026.8 mb 0.00 in0.0 mm 0.00 in0.0 mm 0.00 in0.0 mm
06:19 PM 31.8°F-0.1°C 26.6°F-3.0°C 81% 8.1 mph SSW13.0 kmh SSW 11.0 mph17.7 kmh 30.32 in1026.8 mb 0.00 in0.0 mm 0.00 in0.0 mm 0.00 in0.0 mm
06:14 PM 31.8°F-0.1°C 26.3°F-3.2°C 80% 9.3 mph SSW15.0 kmh SSW 13.8 mph22.2 kmh 30.33 in1027.1 mb 0.00 in0.0 mm 0.00 in0.0 mm 0.00 in0.0 mm
06:09 PM 31.8°F-0.1°C 26.0°F-3.3°C 79% 7.3 mph SSW11.7 kmh SSW 8.9 mph14.3 kmh 30.34 in1027.4 mb 0.00 in0.0 mm 0.00 in0.0 mm 0.00 in0.0 mm
06:04 PM 31.8°F-0.1°C 26.0°F-3.3°C 79% 8.1 mph SSW13.0 kmh SSW 11.4 mph18.3 kmh 30.35 in1027.8 mb 0.00 in0.0 mm 0.00 in0.0 mm 0.00 in0.0 mm
05:59 PM 31.8°F-0.1°C 25.7°F-3.5°C 78% 9.1 mph SSW14.6 kmh SSW 12.8 mph20.6 kmh 30.35 in1027.8 mb 0.00 in0.0 mm 0.00 in0.0 mm 0.00 in0.0 mm
05:54 PM 31.7°F-0.2°C 25.3°F-3.7°C 77% 8.2 mph SSW13.2 kmh SSW 9.5 mph15.3 kmh 30.36 in1028.1 mb 0.00 in0.0 mm 0.00 in0.0 mm 0.00 in0.0 mm
05:49 PM 31.6°F-0.2°C 24.6°F-4.1°C 75% 6.0 mph S9.7 kmh S 7.7 mph12.4 kmh 30.35 in1027.8 mb 0.00 in0.0 mm 0.00 in0.0 mm 0.00 in0.0 mm
05:44 PM 31.5°F-0.3°C 24.2°F-4.3°C 74% 5.5 mph S8.9 kmh S 7.5 mph12.1 kmh 30.37 in1028.4 mb 0.00 in0.0 mm 0.00 in0.0 mm 0.00 in0.0 mm
05:39 PM 31.5°F-0.3°C 24.2°F-4.3°C 74% 8.9 mph SSW14.3 kmh SSW 11.9 mph19.2 kmh 30.38 in1028.8 mb 0.00 in0.0 mm 0.00 in0.0 mm 0.00 in0.0 mm
05:34 PM 31.5°F-0.3°C 24.5°F-4.2°C 75% 4.3 mph SSW6.9 kmh SSW 5.4 mph8.7 kmh 30.39 in1029.1 mb 0.00 in0.0 mm 0.00 in0.0 mm 0.00 in0.0 mm
05:29 PM 31.5°F-0.3°C 24.2°F-4.3°C 74% 4.5 mph SSW7.2 kmh SSW 6.2 mph10.0 kmh 30.39 in1029.1 mb 0.00 in0.0 mm 0.00 in0.0 mm 0.00 in0.0 mm
05:24 PM 31.5°F-0.3°C 24.2°F-4.3°C 74% 6.7 mph S10.8 kmh S 7.7 mph12.4 kmh 30.39 in1029.1 mb 0.00 in0.0 mm 0.00 in0.0 mm 0.00 in0.0 mm
05:19 PM 31.5°F-0.3°C 24.5°F-4.2°C 75% 5.3 mph SSW8.5 kmh SSW 6.2 mph10.0 kmh 30.41 in1029.8 mb 0.00 in0.0 mm 0.00 in0.0 mm 0.00 in0.0 mm
05:14 PM 31.3°F-0.4°C 24.3°F-4.3°C 75% 5.4 mph SSW8.7 kmh SSW 7.2 mph11.6 kmh 30.41 in1029.8 mb 0.00 in0.0 mm 0.00 in0.0 mm 0.00 in0.0 mm
05:09 PM 31.3°F-0.4°C 24.0°F-4.4°C 74% 5.6 mph SSW9.0 kmh SSW 6.7 mph10.8 kmh 30.40 in1029.5 mb 0.00 in0.0 mm 0.00 in0.0 mm 0.00 in0.0 mm
05:04 PM 31.2°F-0.4°C 23.9°F-4.5°C 74% 8.5 mph SSW13.7 kmh SSW 11.4 mph18.3 kmh 30.41 in1029.8 mb 0.00 in0.0 mm 0.00 in0.0 mm 0.00 in0.0 mm
04:59 PM 31.1°F-0.5°C 23.5°F-4.7°C 73% 6.1 mph SSW9.8 kmh SSW 7.7 mph12.4 kmh 30.42 in1030.1 mb 0.00 in0.0 mm 0.00 in0.0 mm 0.00 in0.0 mm
04:54 PM 31.2°F-0.4°C 23.6°F-4.7°C 73% 6.1 mph SSW9.8 kmh SSW 7.2 mph11.6 kmh 30.42 in1030.1 mb 0.00 in0.0 mm 0.00 in0.0 mm 0.00 in0.0 mm
04:49 PM 31.1°F-0.5°C 22.8°F-5.1°C 71% 4.3 mph SSW6.9 kmh SSW 5.5 mph8.9 kmh 30.43 in1030.5 mb 0.00 in0.0 mm 0.00 in0.0 mm 0.00 in0.0 mm
04:44 PM 31.1°F-0.5°C 22.8°F-5.1°C 71% 6.9 mph S11.1 kmh S 8.1 mph13.0 kmh 30.44 in1030.8 mb 0.00 in0.0 mm 0.00 in0.0 mm 0.00 in0.0 mm
04:39 PM 31.1°F-0.5°C 22.8°F-5.1°C 71% 6.6 mph SSW10.6 kmh SSW 8.9 mph14.3 kmh 30.44 in1030.8 mb 0.00 in0.0 mm 0.00 in0.0 mm 0.00 in0.0 mm
04:34 PM 31.0°F-0.6°C 22.4°F-5.3°C 70% 5.2 mph SSW8.4 kmh SSW 7.2 mph11.6 kmh 30.44 in1030.8 mb 0.00 in0.0 mm 0.00 in0.0 mm 0.00 in0.0 mm
04:29 PM 31.0°F-0.6°C 22.4°F-5.3°C 70% 7.7 mph S12.4 kmh S 11.1 mph17.9 kmh 30.44 in1030.8 mb 0.00 in0.0 mm 0.00 in0.0 mm 0.00 in0.0 mm
04:24 PM 30.8°F-0.7°C 22.2°F-5.4°C 70% 7.9 mph SSW12.7 kmh SSW 10.6 mph17.1 kmh 30.45 in1031.2 mb 0.00 in0.0 mm 0.00 in0.0 mm 0.00 in0.0 mm
04:19 PM 30.8°F-0.7°C 21.9°F-5.6°C 69% 7.8 mph SSW12.6 kmh SSW 9.8 mph15.8 kmh 30.44 in1030.8 mb 0.00 in0.0 mm 0.00 in0.0 mm 0.00 in0.0 mm
04:14 PM 30.8°F-0.7°C 21.5°F-5.8°C 68% 5.6 mph SSW9.0 kmh SSW 7.5 mph12.1 kmh 30.45 in1031.2 mb 0.00 in0.0 mm 0.00 in0.0 mm 0.00 in0.0 mm
04:09 PM 30.6°F-0.8°C 21.3°F-5.9°C 68% 8.8 mph SSW14.2 kmh SSW 14.1 mph22.7 kmh 30.45 in1031.2 mb 0.00 in0.0 mm 0.00 in0.0 mm 0.00 in0.0 mm
04:04 PM 30.7°F-0.7°C 21.8°F-5.7°C 69% 5.5 mph S8.9 kmh S 7.5 mph12.1 kmh 30.46 in1031.5 mb 0.00 in0.0 mm 0.00 in0.0 mm 0.00 in0.0 mm
03:59 PM 30.6°F-0.8°C 21.0°F-6.1°C 67% 7.0 mph S11.3 kmh S 9.0 mph14.5 kmh 30.47 in1031.8 mb 0.00 in0.0 mm 0.00 in0.0 mm 0.00 in0.0 mm
03:54 PM 30.6°F-0.8°C 21.3°F-5.9°C 68% 7.1 mph SSW11.4 kmh SSW 10.3 mph16.6 kmh 30.47 in1031.8 mb 0.00 in0.0 mm 0.00 in0.0 mm 0.00 in0.0 mm
03:49 PM 30.5°F-0.8°C 21.2°F-6.0°C 68% 8.0 mph SSW12.9 kmh SSW 9.8 mph15.8 kmh 30.48 in1032.2 mb 0.00 in0.0 mm 0.00 in0.0 mm 0.00 in0.0 mm
03:44 PM 30.3°F-0.9°C 20.7°F-6.3°C 67% 6.3 mph SSW10.1 kmh SSW 7.9 mph12.7 kmh 30.48 in1032.2 mb 0.00 in0.0 mm 0.00 in0.0 mm 0.00 in0.0 mm
03:39 PM 30.3°F-0.9°C 21.0°F-6.1°C 68% 6.9 mph SSW11.1 kmh SSW 8.5 mph13.7 kmh 30.49 in1032.5 mb 0.00 in0.0 mm 0.00 in0.0 mm 0.00 in0.0 mm
03:34 PM 30.3°F-0.9°C 20.7°F-6.3°C 67% 5.6 mph S9.0 kmh S 7.0 mph11.3 kmh 30.49 in1032.5 mb 0.00 in0.0 mm 0.00 in0.0 mm 0.00 in0.0 mm
03:29 PM 30.1°F-1.1°C 20.1°F-6.6°C 66% 5.6 mph S9.0 kmh S 8.4 mph13.5 kmh 30.49 in1032.5 mb 0.00 in0.0 mm 0.00 in0.0 mm 0.00 in0.0 mm
03:24 PM 30.1°F-1.1°C 20.1°F-6.6°C 66% 5.8 mph S9.3 kmh S 7.9 mph12.7 kmh 30.49 in1032.5 mb 0.00 in0.0 mm 0.00 in0.0 mm 0.00 in0.0 mm
03:19 PM 30.1°F-1.1°C 20.1°F-6.6°C 66% 6.9 mph S11.1 kmh S 9.8 mph15.8 kmh 30.48 in1032.2 mb 0.00 in0.0 mm 0.00 in0.0 mm 0.00 in0.0 mm
03:14 PM 30.1°F-1.1°C 20.5°F-6.4°C 67% 7.4 mph SSW11.9 kmh SSW 9.5 mph15.3 kmh 30.49 in1032.5 mb 0.00 in0.0 mm 0.00 in0.0 mm 0.00 in0.0 mm
03:09 PM 30.1°F-1.1°C 20.1°F-6.6°C 66% 8.4 mph SSW13.5 kmh SSW 10.6 mph17.1 kmh 30.48 in1032.2 mb 0.00 in0.0 mm 0.00 in0.0 mm 0.00 in0.0 mm
03:04 PM 30.3°F-0.9°C 19.6°F-6.9°C 64% 8.9 mph SSW14.3 kmh SSW 13.3 mph21.4 kmh 30.49 in1032.5 mb 0.00 in0.0 mm 0.00 in0.0 mm 0.00 in0.0 mm
02:59 PM 30.3°F-0.9°C 19.2°F-7.1°C 63% 6.7 mph SSW10.8 kmh SSW 8.1 mph13.0 kmh 30.50 in1032.8 mb 0.00 in0.0 mm 0.00 in0.0 mm 0.00 in0.0 mm
02:54 PM 30.3°F-0.9°C 19.2°F-7.1°C 63% 5.3 mph S8.5 kmh S 7.7 mph12.4 kmh 30.50 in1032.8 mb 0.00 in0.0 mm 0.00 in0.0 mm 0.00 in0.0 mm
02:49 PM 30.5°F-0.8°C 19.4°F-7.0°C 63% 5.9 mph S9.5 kmh S 8.1 mph13.0 kmh 30.51 in1033.2 mb 0.00 in0.0 mm 0.00 in0.0 mm 0.00 in0.0 mm
02:44 PM 30.8°F-0.7°C 19.3°F-7.1°C 62% 7.3 mph SSW11.7 kmh SSW 9.3 mph15.0 kmh 30.51 in1033.2 mb 0.00 in0.0 mm 0.00 in0.0 mm 0.00 in0.0 mm
02:39 PM 30.8°F-0.7°C 19.0°F-7.2°C 61% 6.6 mph S10.6 kmh S 7.5 mph12.1 kmh 30.51 in1033.2 mb 0.00 in0.0 mm 0.00 in0.0 mm 0.00 in0.0 mm
02:34 PM 30.7°F-0.7°C 18.9°F-7.3°C 61% 6.1 mph S9.8 kmh S 10.0 mph16.1 kmh 30.52 in1033.5 mb 0.00 in0.0 mm 0.00 in0.0 mm 0.00 in0.0 mm
02:29 PM 30.5°F-0.8°C 19.1°F-7.2°C 62% 5.8 mph S9.3 kmh S 8.4 mph13.5 kmh 30.53 in1033.9 mb 0.00 in0.0 mm 0.00 in0.0 mm 0.00 in0.0 mm
02:24 PM 30.2°F-1.0°C 19.1°F-7.2°C 63% 3.7 mph SE6.0 kmh SE 4.9 mph7.9 kmh 30.53 in1033.9 mb 0.00 in0.0 mm 0.00 in0.0 mm 0.00 in0.0 mm
02:19 PM 29.8°F-1.2°C 19.1°F-7.2°C 64% 5.8 mph S9.3 kmh S 8.9 mph14.3 kmh 30.53 in1033.9 mb 0.00 in0.0 mm 0.00 in0.0 mm 0.00 in0.0 mm
02:14 PM 29.8°F-1.2°C 19.1°F-7.2°C 64% 5.6 mph SSE9.0 kmh SSE 7.7 mph12.4 kmh 30.53 in1033.9 mb 0.00 in0.0 mm 0.00 in0.0 mm 0.00 in0.0 mm
02:09 PM 30.1°F-1.1°C 19.4°F-7.0°C 64% 7.1 mph SE11.4 kmh SE 9.8 mph15.8 kmh 30.54 in1034.2 mb 0.00 in0.0 mm 0.00 in0.0 mm 0.00 in0.0 mm
02:04 PM 29.9°F-1.2°C 19.2°F-7.1°C 64% 2.2 mph SE3.5 kmh SE 4.9 mph7.9 kmh 30.54 in1034.2 mb 0.00 in0.0 mm 0.00 in0.0 mm 0.00 in0.0 mm
01:59 PM 29.6°F-1.3°C 18.2°F-7.7°C 62% 4.5 mph SSE7.2 kmh SSE 6.7 mph10.8 kmh 30.54 in1034.2 mb 0.00 in0.0 mm 0.00 in0.0 mm 0.00 in0.0 mm
01:54 PM 29.6°F-1.3°C 18.2°F-7.7°C 62% 6.5 mph SSE10.5 kmh SSE 10.3 mph16.6 kmh 30.54 in1034.2 mb 0.00 in0.0 mm 0.00 in0.0 mm 0.00 in0.0 mm
01:49 PM 29.6°F-1.3°C 17.4°F-8.1°C 60% 5.9 mph SSE9.5 kmh SSE 9.5 mph15.3 kmh 30.55 in1034.5 mb 0.00 in0.0 mm 0.00 in0.0 mm 0.00 in0.0 mm
01:44 PM 29.6°F-1.3°C 17.4°F-8.1°C 60% 6.3 mph SE10.1 kmh SE 9.3 mph15.0 kmh 30.55 in1034.5 mb 0.00 in0.0 mm 0.00 in0.0 mm 0.00 in0.0 mm
01:39 PM 29.6°F-1.3°C 17.4°F-8.1°C 60% 5.2 mph SE8.4 kmh SE 8.5 mph13.7 kmh 30.56 in1034.9 mb 0.00 in0.0 mm 0.00 in0.0 mm 0.00 in0.0 mm
01:34 PM 29.4°F-1.4°C 17.3°F-8.2°C 60% 4.6 mph SE7.4 kmh SE 6.7 mph10.8 kmh 30.57 in1035.2 mb 0.00 in0.0 mm 0.00 in0.0 mm 0.00 in0.0 mm
01:29 PM 29.3°F-1.5°C 17.2°F-8.2°C 60% 6.4 mph SE10.3 kmh SE 9.3 mph15.0 kmh 30.58 in1035.6 mb 0.00 in0.0 mm 0.00 in0.0 mm 0.00 in0.0 mm
01:24 PM 29.4°F-1.4°C 17.3°F-8.2°C 60% 6.2 mph SE10.0 kmh SE 8.9 mph14.3 kmh 30.58 in1035.6 mb 0.00 in0.0 mm 0.00 in0.0 mm 0.00 in0.0 mm
01:19 PM 29.4°F-1.4°C 17.3°F-8.2°C 60% 7.3 mph SSE11.7 kmh SSE 9.5 mph15.3 kmh 30.60 in1036.2 mb 0.00 in0.0 mm 0.00 in0.0 mm 0.00 in0.0 mm
01:14 PM 29.3°F-1.5°C 17.2°F-8.2°C 60% 5.0 mph SE8.0 kmh SE 7.0 mph11.3 kmh 30.59 in1035.9 mb 0.00 in0.0 mm 0.00 in0.0 mm 0.00 in0.0 mm
01:09 PM 29.2°F-1.6°C 17.1°F-8.3°C 60% 5.7 mph SE9.2 kmh SE 11.4 mph18.3 kmh 30.59 in1035.9 mb 0.00 in0.0 mm 0.00 in0.0 mm 0.00 in0.0 mm
01:04 PM 29.2°F-1.6°C 16.7°F-8.5°C 59% 4.5 mph SSE7.2 kmh SSE 6.7 mph10.8 kmh 30.60 in1036.2 mb 0.00 in0.0 mm 0.00 in0.0 mm 0.00 in0.0 mm
12:59 PM 29.3°F-1.5°C 17.2°F-8.2°C 60% 7.3 mph SE11.7 kmh SE 11.4 mph18.3 kmh 30.60 in1036.2 mb 0.00 in0.0 mm 0.00 in0.0 mm 0.00 in0.0 mm
12:54 PM 29.5°F-1.4°C 17.0°F-8.3°C 59% 5.7 mph SE9.2 kmh SE 8.5 mph13.7 kmh 30.60 in1036.2 mb 0.00 in0.0 mm 0.00 in0.0 mm 0.00 in0.0 mm
12:49 PM 29.5°F-1.4°C 17.3°F-8.2°C 60% 4.4 mph SE7.1 kmh SE 6.5 mph10.5 kmh 30.61 in1036.6 mb 0.00 in0.0 mm 0.00 in0.0 mm 0.00 in0.0 mm
12:44 PM 29.3°F-1.5°C 16.8°F-8.4°C 59% 5.3 mph SSE8.5 kmh SSE 9.8 mph15.8 kmh 30.61 in1036.6 mb 0.00 in0.0 mm 0.00 in0.0 mm 0.00 in0.0 mm
12:39 PM 29.0°F-1.7°C 16.1°F-8.8°C 58% 4.0 mph S6.4 kmh S 6.0 mph9.7 kmh 30.61 in1036.6 mb 0.00 in0.0 mm 0.00 in0.0 mm 0.00 in0.0 mm
12:34 PM 29.0°F-1.7°C 15.7°F-9.1°C 57% 4.3 mph SE6.9 kmh SE 6.2 mph10.0 kmh 30.61 in1036.6 mb 0.00 in0.0 mm 0.00 in0.0 mm 0.00 in0.0 mm
12:29 PM 28.9°F-1.7°C 15.2°F-9.3°C 56% 5.5 mph SSE8.9 kmh SSE 7.7 mph12.4 kmh 30.62 in1036.9 mb 0.00 in0.0 mm 0.00 in0.0 mm 0.00 in0.0 mm
12:24 PM 28.8°F-1.8°C 15.1°F-9.4°C 56% 5.2 mph SE8.4 kmh SE 7.7 mph12.4 kmh 30.62 in1036.9 mb 0.00 in0.0 mm 0.00 in0.0 mm 0.00 in0.0 mm
12:19 PM 28.8°F-1.8°C 14.7°F-9.6°C 55% 4.9 mph SSE7.9 kmh SSE 8.4 mph13.5 kmh 30.62 in1036.9 mb 0.00 in0.0 mm 0.00 in0.0 mm 0.00 in0.0 mm
12:14 PM 28.9°F-1.7°C 14.8°F-9.6°C 55% 5.6 mph S9.0 kmh S 8.1 mph13.0 kmh 30.63 in1037.3 mb 0.00 in0.0 mm 0.00 in0.0 mm 0.00 in0.0 mm
12:09 PM 29.0°F-1.7°C 14.9°F-9.5°C 55% 8.3 mph SSE13.4 kmh SSE 11.6 mph18.7 kmh 30.63 in1037.3 mb 0.00 in0.0 mm 0.00 in0.0 mm 0.00 in0.0 mm
12:04 PM 29.1°F-1.6°C 14.6°F-9.7°C 54% 4.8 mph SE7.7 kmh SE 7.5 mph12.1 kmh 30.63 in1037.3 mb 0.00 in0.0 mm 0.00 in0.0 mm 0.00 in0.0 mm
11:59 AM 29.3°F-1.5°C 14.3°F-9.8°C 53% 8.2 mph SSE13.2 kmh SSE 10.5 mph16.9 kmh 30.64 in1037.6 mb 0.00 in0.0 mm 0.00 in0.0 mm 0.00 in0.0 mm
11:54 AM 29.3°F-1.5°C 15.2°F-9.3°C 55% 3.4 mph SE5.5 kmh SE 4.4 mph7.1 kmh 30.65 in1037.9 mb 0.00 in0.0 mm 0.00 in0.0 mm 0.00 in0.0 mm
11:49 AM 29.5°F-1.4°C 15.3°F-9.3°C 55% 5.3 mph SE8.5 kmh SE 7.7 mph12.4 kmh 30.65 in1037.9 mb 0.00 in0.0 mm 0.00 in0.0 mm 0.00 in0.0 mm
11:44 AM 29.3°F-1.5°C 15.6°F-9.1°C 56% 4.0 mph SE6.4 kmh SE 5.5 mph8.9 kmh 30.65 in1037.9 mb 0.00 in0.0 mm 0.00 in0.0 mm 0.00 in0.0 mm
11:39 AM 28.8°F-1.8°C 15.1°F-9.4°C 56% 4.9 mph S7.9 kmh S 7.7 mph12.4 kmh 30.65 in1037.9 mb 0.00 in0.0 mm 0.00 in0.0 mm 0.00 in0.0 mm
11:34 AM 28.8°F-1.8°C 15.5°F-9.2°C 57% 3.4 mph SE5.5 kmh SE 5.4 mph8.7 kmh 30.66 in1038.3 mb 0.00 in0.0 mm 0.00 in0.0 mm 0.00 in0.0 mm
11:29 AM 28.8°F-1.8°C 15.1°F-9.4°C 56% 5.4 mph SSE8.7 kmh SSE 7.5 mph12.1 kmh 30.66 in1038.3 mb 0.00 in0.0 mm 0.00 in0.0 mm 0.00 in0.0 mm
11:24 AM 28.5°F-1.9°C 14.0°F-10.0°C 54% 3.3 mph S5.3 kmh S 4.4 mph7.1 kmh 30.67 in1038.6 mb 0.00 in0.0 mm 0.00 in0.0 mm 0.00 in0.0 mm
11:19 AM 28.1°F-2.2°C 13.2°F-10.4°C 53% 2.5 mph SSE4.0 kmh SSE 4.2 mph6.8 kmh 30.67 in1038.6 mb 0.00 in0.0 mm 0.00 in0.0 mm 0.00 in0.0 mm
11:14 AM 28.1°F-2.2°C 13.2°F-10.4°C 53% 3.6 mph SE5.8 kmh SE 4.9 mph7.9 kmh 30.67 in1038.6 mb 0.00 in0.0 mm 0.00 in0.0 mm 0.00 in0.0 mm
11:09 AM 28.2°F-2.1°C 13.3°F-10.4°C 53% 6.6 mph SSE10.6 kmh SSE 9.0 mph14.5 kmh 30.67 in1038.6 mb 0.00 in0.0 mm 0.00 in0.0 mm 0.00 in0.0 mm
11:04 AM 28.1°F-2.2°C 14.0°F-10.0°C 55% 5.1 mph SSW8.2 kmh SSW 6.7 mph10.8 kmh 30.68 in1038.9 mb 0.00 in0.0 mm 0.00 in0.0 mm 0.00 in0.0 mm
10:59 AM 28.0°F-2.2°C 13.9°F-10.1°C 55% 4.1 mph S6.6 kmh S 6.2 mph10.0 kmh 30.68 in1038.9 mb 0.00 in0.0 mm 0.00 in0.0 mm 0.00 in0.0 mm
10:54 AM 27.8°F-2.3°C 13.8°F-10.1°C 55% 4.4 mph SE7.1 kmh SE 5.7 mph9.2 kmh 30.68 in1038.9 mb 0.00 in0.0 mm 0.00 in0.0 mm 0.00 in0.0 mm
10:49 AM 27.5°F-2.5°C 12.6°F-10.8°C 53% 1.6 mph E2.6 kmh E 3.0 mph4.8 kmh 30.68 in1038.9 mb 0.00 in0.0 mm 0.00 in0.0 mm 0.00 in0.0 mm
10:44 AM 27.3°F-2.6°C 12.9°F-10.6°C 54% 4.2 mph S6.8 kmh S 6.0 mph9.7 kmh 30.68 in1038.9 mb 0.00 in0.0 mm 0.00 in0.0 mm 0.00 in0.0 mm
10:39 AM 27.1°F-2.7°C 13.9°F-10.1°C 57% 3.2 mph SSE5.1 kmh SSE 4.7 mph7.6 kmh 30.69 in1039.3 mb 0.00 in0.0 mm 0.00 in0.0 mm 0.00 in0.0 mm
10:34 AM 27.1°F-2.7°C 14.3°F-9.8°C 58% 3.6 mph SE5.8 kmh SE 5.4 mph8.7 kmh 30.69 in1039.3 mb 0.00 in0.0 mm 0.00 in0.0 mm 0.00 in0.0 mm
10:29 AM 27.0°F-2.8°C 14.2°F-9.9°C 58% 3.2 mph E5.1 kmh E 6.0 mph9.7 kmh 30.69 in1039.3 mb 0.00 in0.0 mm 0.00 in0.0 mm 0.00 in0.0 mm
10:24 AM 26.8°F-2.9°C 14.4°F-9.8°C 59% 2.9 mph S4.7 kmh S 4.4 mph7.1 kmh 30.69 in1039.3 mb 0.00 in0.0 mm 0.00 in0.0 mm 0.00 in0.0 mm
10:19 AM 26.6°F-3.0°C 13.4°F-10.3°C 57% 3.2 mph ESE5.1 kmh ESE 6.5 mph10.5 kmh 30.70 in1039.6 mb 0.00 in0.0 mm 0.00 in0.0 mm 0.00 in0.0 mm
10:14 AM 26.6°F-3.0°C 12.6°F-10.8°C 55% 4.0 mph SE6.4 kmh SE 6.7 mph10.8 kmh 30.70 in1039.6 mb 0.00 in0.0 mm 0.00 in0.0 mm 0.00 in0.0 mm
10:09 AM 26.8°F-2.9°C 13.2°F-10.4°C 56% 4.0 mph SE6.4 kmh SE 6.2 mph10.0 kmh 30.70 in1039.6 mb 0.00 in0.0 mm 0.00 in0.0 mm 0.00 in0.0 mm
10:04 AM 27.1°F-2.7°C 14.3°F-9.8°C 58% 3.8 mph ESE6.1 kmh ESE 5.0 mph8.0 kmh 30.70 in1039.6 mb 0.00 in0.0 mm 0.00 in0.0 mm 0.00 in0.0 mm
09:59 AM 27.2°F-2.7°C 15.9°F-8.9°C 62% 6.3 mph S10.1 kmh S 11.1 mph17.9 kmh 30.70 in1039.6 mb 0.00 in0.0 mm 0.00 in0.0 mm 0.00 in0.0 mm
09:54 AM 27.3°F-2.6°C 17.8°F-7.9°C 67% 7.4 mph S11.9 kmh S 10.5 mph16.9 kmh 30.70 in1039.6 mb 0.00 in0.0 mm 0.00 in0.0 mm 0.00 in0.0 mm
09:49 AM 27.2°F-2.7°C 18.4°F-7.6°C 69% 4.2 mph SSE6.8 kmh SSE 7.0 mph11.3 kmh 30.70 in1039.6 mb 0.00 in0.0 mm 0.00 in0.0 mm 0.00 in0.0 mm
09:44 AM 26.9°F-2.8°C 17.1°F-8.3°C 66% 3.8 mph SE6.1 kmh SE 7.7 mph12.4 kmh 30.70 in1039.6 mb 0.00 in0.0 mm 0.00 in0.0 mm 0.00 in0.0 mm
09:39 AM 26.5°F-3.1°C 15.6°F-9.1°C 63% 3.3 mph ESE5.3 kmh ESE 4.9 mph7.9 kmh 30.70 in1039.6 mb 0.00 in0.0 mm 0.00 in0.0 mm 0.00 in0.0 mm
09:34 AM 26.4°F-3.1°C 16.3°F-8.7°C 65% 5.5 mph SE8.9 kmh SE 8.9 mph14.3 kmh 30.70 in1039.6 mb 0.00 in0.0 mm 0.00 in0.0 mm 0.00 in0.0 mm
09:29 AM 26.5°F-3.1°C 17.4°F-8.1°C 68% 5.6 mph ESE9.0 kmh ESE 7.9 mph12.7 kmh 30.71 in1040.0 mb 0.00 in0.0 mm 0.00 in0.0 mm 0.00 in0.0 mm
09:24 AM 26.5°F-3.1°C 18.4°F-7.6°C 71% 7.4 mph SE11.9 kmh SE 10.5 mph16.9 kmh 30.71 in1040.0 mb 0.00 in0.0 mm 0.00 in0.0 mm 0.00 in0.0 mm
09:19 AM 26.3°F-3.2°C 17.5°F-8.1°C 69% 4.4 mph ESE7.1 kmh ESE 8.1 mph13.0 kmh 30.71 in1040.0 mb 0.00 in0.0 mm 0.00 in0.0 mm 0.00 in0.0 mm
09:14 AM 26.1°F-3.3°C 17.7°F-7.9°C 70% 5.3 mph ESE8.5 kmh ESE 7.2 mph11.6 kmh 30.71 in1040.0 mb 0.00 in0.0 mm 0.00 in0.0 mm 0.00 in0.0 mm
09:09 AM 25.8°F-3.4°C 17.7°F-7.9°C 71% 4.5 mph SE7.2 kmh SE 7.0 mph11.3 kmh 30.71 in1040.0 mb 0.00 in0.0 mm 0.00 in0.0 mm 0.00 in0.0 mm
09:04 AM 25.6°F-3.6°C 17.8°F-7.9°C 72% 4.3 mph SE6.9 kmh SE 7.7 mph12.4 kmh 30.71 in1040.0 mb 0.00 in0.0 mm 0.00 in0.0 mm 0.00 in0.0 mm
08:59 AM 25.4°F-3.7°C 17.3°F-8.2°C 71% 4.4 mph SE7.1 kmh SE 7.9 mph12.7 kmh 30.72 in1040.3 mb 0.00 in0.0 mm 0.00 in0.0 mm 0.00 in0.0 mm
08:54 AM 25.2°F-3.8°C 16.5°F-8.6°C 69% 3.6 mph SE5.8 kmh SE 7.5 mph12.1 kmh 30.72 in1040.3 mb 0.00 in0.0 mm 0.00 in0.0 mm 0.00 in0.0 mm
08:49 AM 24.8°F-4.0°C 14.7°F-9.6°C 65% 5.8 mph ESE9.3 kmh ESE 10.6 mph17.1 kmh 30.72 in1040.3 mb 0.00 in0.0 mm 0.00 in0.0 mm 0.00 in0.0 mm
08:44 AM 24.5°F-4.2°C 14.1°F-9.9°C 64% 4.4 mph SE7.1 kmh SE 6.7 mph10.8 kmh 30.72 in1040.3 mb 0.00 in0.0 mm 0.00 in0.0 mm 0.00 in0.0 mm
08:39 AM 24.6°F-4.1°C 15.9°F-8.9°C 69% 5.7 mph SE9.2 kmh SE 9.3 mph15.0 kmh 30.71 in1040.0 mb 0.00 in0.0 mm 0.00 in0.0 mm 0.00 in0.0 mm
08:34 AM 24.8°F-4.0°C 18.3°F-7.6°C 76% 5.0 mph SE8.0 kmh SE 10.3 mph16.6 kmh 30.72 in1040.3 mb 0.00 in0.0 mm 0.00 in0.0 mm 0.00 in0.0 mm
08:29 AM 24.8°F-4.0°C 18.9°F-7.3°C 78% 6.2 mph SE10.0 kmh SE 9.8 mph15.8 kmh 30.72 in1040.3 mb 0.00 in0.0 mm 0.00 in0.0 mm 0.00 in0.0 mm
08:24 AM 24.6°F-4.1°C 18.7°F-7.4°C 78% 3.2 mph ESE5.1 kmh ESE 5.0 mph8.0 kmh 30.72 in1040.3 mb 0.00 in0.0 mm 0.00 in0.0 mm 0.00 in0.0 mm
08:19 AM 24.6°F-4.1°C 19.0°F-7.2°C 79% 2.6 mph E4.2 kmh E 4.7 mph7.6 kmh 30.73 in1040.6 mb 0.00 in0.0 mm 0.00 in0.0 mm 0.00 in0.0 mm
08:14 AM 24.3°F-4.3°C 18.4°F-7.6°C 78% 3.9 mph ESE6.3 kmh ESE 7.5 mph12.1 kmh 30.73 in1040.6 mb 0.00 in0.0 mm 0.00 in0.0 mm 0.00 in0.0 mm
08:09 AM 24.2°F-4.3°C 18.6°F-7.4°C 79% 5.2 mph ESE8.4 kmh ESE 11.4 mph18.3 kmh 30.73 in1040.6 mb 0.00 in0.0 mm 0.00 in0.0 mm 0.00 in0.0 mm
08:04 AM 24.0°F-4.4°C 18.5°F-7.5°C 79% 3.4 mph ENE5.5 kmh ENE 5.5 mph8.9 kmh 30.73 in1040.6 mb 0.00 in0.0 mm 0.00 in0.0 mm 0.00 in0.0 mm
07:59 AM 23.8°F-4.6°C 18.3°F-7.6°C 79% 1.8 mph ENE2.9 kmh ENE 4.7 mph7.6 kmh 30.73 in1040.6 mb 0.00 in0.0 mm 0.00 in0.0 mm 0.00 in0.0 mm
07:54 AM 23.6°F-4.7°C 18.1°F-7.7°C 79% 2.6 mph E4.2 kmh E 5.5 mph8.9 kmh 30.73 in1040.6 mb 0.00 in0.0 mm 0.00 in0.0 mm 0.00 in0.0 mm
07:49 AM 23.3°F-4.8°C 17.8°F-7.9°C 79% 2.3 mph E3.7 kmh E 4.9 mph7.9 kmh 30.73 in1040.6 mb 0.00 in0.0 mm 0.00 in0.0 mm 0.00 in0.0 mm
07:44 AM 23.0°F-5.0°C 17.5°F-8.1°C 79% 4.3 mph SE6.9 kmh SE 6.0 mph9.7 kmh 30.73 in1040.6 mb 0.00 in0.0 mm 0.00 in0.0 mm 0.00 in0.0 mm
07:39 AM 22.8°F-5.1°C 17.0°F-8.3°C 78% 2.2 mph ESE3.5 kmh ESE 3.7 mph6.0 kmh 30.73 in1040.6 mb 0.00 in0.0 mm 0.00 in0.0 mm 0.00 in0.0 mm
07:34 AM 22.6°F-5.2°C 16.2°F-8.8°C 76% 2.9 mph E4.7 kmh E 4.9 mph7.9 kmh 30.73 in1040.6 mb 0.00 in0.0 mm 0.00 in0.0 mm 0.00 in0.0 mm
07:29 AM 22.4°F-5.3°C 16.3°F-8.7°C 77% 2.6 mph ESE4.2 kmh ESE 4.9 mph7.9 kmh 30.73 in1040.6 mb 0.00 in0.0 mm 0.00 in0.0 mm 0.00 in0.0 mm
07:24 AM 22.2°F-5.4°C 15.8°F-9.0°C 76% 2.3 mph NE3.7 kmh NE 5.0 mph8.0 kmh 30.72 in1040.3 mb 0.00 in0.0 mm 0.00 in0.0 mm 0.00 in0.0 mm
07:19 AM 22.0°F-5.6°C 15.0°F-9.4°C 74% 1.2 mph ENE1.9 kmh ENE 3.5 mph5.6 kmh 30.72 in1040.3 mb 0.00 in0.0 mm 0.00 in0.0 mm 0.00 in0.0 mm
07:14 AM 21.8°F-5.7°C 14.5°F-9.7°C 73% 1.6 mph ESE2.6 kmh ESE 4.2 mph6.8 kmh 30.72 in1040.3 mb 0.00 in0.0 mm 0.00 in0.0 mm 0.00 in0.0 mm
07:09 AM 21.6°F-5.8°C 14.0°F-10.0°C 72% 2.2 mph ESE3.5 kmh ESE 4.2 mph6.8 kmh 30.72 in1040.3 mb 0.00 in0.0 mm 0.00 in0.0 mm 0.00 in0.0 mm
07:04 AM 21.3°F-5.9°C 13.4°F-10.3°C 71% 2.5 mph E4.0 kmh E 4.0 mph6.4 kmh 30.73 in1040.6 mb 0.00 in0.0 mm 0.00 in0.0 mm 0.00 in0.0 mm
06:59 AM 21.1°F-6.1°C 12.9°F-10.6°C 70% 1.9 mph ENE3.1 kmh ENE 4.4 mph7.1 kmh 30.73 in1040.6 mb 0.00 in0.0 mm 0.00 in0.0 mm 0.00 in0.0 mm
06:54 AM 20.8°F-6.2°C 12.9°F-10.6°C 71% 3.1 mph ESE5.0 kmh ESE 6.7 mph10.8 kmh 30.73 in1040.6 mb 0.00 in0.0 mm 0.00 in0.0 mm 0.00 in0.0 mm
06:49 AM 20.4°F-6.4°C 12.8°F-10.7°C 72% 1.1 mph E1.8 kmh E 2.7 mph4.3 kmh 30.73 in1040.6 mb 0.00 in0.0 mm 0.00 in0.0 mm 0.00 in0.0 mm
06:44 AM 20.2°F-6.6°C 12.6°F-10.8°C 72% 0.1 mph ENE0.2 kmh ENE 2.1 mph3.4 kmh 30.72 in1040.3 mb 0.00 in0.0 mm 0.00 in0.0 mm 0.00 in0.0 mm
06:39 AM 20.3°F-6.5°C 13.1°F-10.5°C 73% 1.2 mph ESE1.9 kmh ESE 3.2 mph5.1 kmh 30.72 in1040.3 mb 0.00 in0.0 mm 0.00 in0.0 mm 0.00 in0.0 mm
06:34 AM 20.2°F-6.6°C 13.3°F-10.4°C 74% Calm Calm -- 30.72 in1040.3 mb 0.00 in0.0 mm 0.00 in0.0 mm 0.00 in0.0 mm
06:29 AM 19.8°F-6.8°C 13.2°F-10.4°C 75% 0.3 mph SE0.5 kmh SE 1.8 mph2.9 kmh 30.72 in1040.3 mb 0.00 in0.0 mm 0.00 in0.0 mm 0.00 in0.0 mm
06:24 AM 19.3°F-7.1°C 13.0°F-10.6°C 76% Calm Calm 1.1 mph1.8 kmh 30.72 in1040.3 mb 0.00 in0.0 mm 0.00 in0.0 mm 0.00 in0.0 mm
06:19 AM 19.0°F-7.2°C 12.7°F-10.7°C 76% 1.5 mph SE2.4 kmh SE 2.6 mph4.2 kmh 30.72 in1040.3 mb 0.00 in0.0 mm 0.00 in0.0 mm 0.00 in0.0 mm
06:14 AM 19.1°F-7.2°C 12.8°F-10.7°C 76% Calm Calm -- 30.71 in1040.0 mb 0.00 in0.0 mm 0.00 in0.0 mm 0.00 in0.0 mm
06:09 AM 19.6°F-6.9°C 13.3°F-10.4°C 76% Calm Calm -- 30.71 in1040.0 mb 0.00 in0.0 mm 0.00 in0.0 mm 0.00 in0.0 mm
06:04 AM 20.0°F-6.7°C 13.4°F-10.3°C 75% Calm Calm -- 30.71 in1040.0 mb 0.00 in0.0 mm 0.00 in0.0 mm 0.00 in0.0 mm
05:59 AM 20.1°F-6.6°C 13.5°F-10.3°C 75% 0.5 mph E0.8 kmh E 1.3 mph2.1 kmh 30.71 in1040.0 mb 0.00 in0.0 mm 0.00 in0.0 mm 0.00 in0.0 mm
05:54 AM 20.2°F-6.6°C 13.3°F-10.4°C 74% 1.3 mph SSE2.1 kmh SSE 2.2 mph3.5 kmh 30.71 in1040.0 mb 0.00 in0.0 mm 0.00 in0.0 mm 0.00 in0.0 mm
05:49 AM 20.5°F-6.4°C 12.9°F-10.6°C 72% 0.5 mph SSE0.8 kmh SSE 1.3 mph2.1 kmh 30.71 in1040.0 mb 0.00 in0.0 mm 0.00 in0.0 mm 0.00 in0.0 mm
05:44 AM 20.5°F-6.4°C 13.6°F-10.2°C 74% 1.2 mph E1.9 kmh E 2.1 mph3.4 kmh 30.71 in1040.0 mb 0.00 in0.0 mm 0.00 in0.0 mm 0.00 in0.0 mm
05:39 AM 20.5°F-6.4°C 13.6°F-10.2°C 74% 0.6 mph ENE1.0 kmh ENE 2.1 mph3.4 kmh 30.71 in1040.0 mb 0.00 in0.0 mm 0.00 in0.0 mm 0.00 in0.0 mm
05:34 AM 20.6°F-6.3°C 13.7°F-10.2°C 74% 2.1 mph ENE3.4 kmh ENE 4.7 mph7.6 kmh 30.72 in1040.3 mb 0.00 in0.0 mm 0.00 in0.0 mm 0.00 in0.0 mm
05:29 AM 20.4°F-6.4°C 13.5°F-10.3°C 74% 1.0 mph NNE1.6 kmh NNE 1.6 mph2.6 kmh 30.72 in1040.3 mb 0.00 in0.0 mm 0.00 in0.0 mm 0.00 in0.0 mm
05:24 AM 19.9°F-6.7°C 13.6°F-10.2°C 76% 0.5 mph NE0.8 kmh NE 3.5 mph5.6 kmh 30.72 in1040.3 mb 0.00 in0.0 mm 0.00 in0.0 mm 0.00 in0.0 mm
05:19 AM 19.6°F-6.9°C 13.6°F-10.2°C 77% 0.2 mph NNE0.3 kmh NNE 1.6 mph2.6 kmh 30.71 in1040.0 mb 0.00 in0.0 mm 0.00 in0.0 mm 0.00 in0.0 mm
05:14 AM 19.5°F-6.9°C 13.2°F-10.4°C 76% 1.3 mph NNE2.1 kmh NNE 2.1 mph3.4 kmh 30.71 in1040.0 mb 0.00 in0.0 mm 0.00 in0.0 mm 0.00 in0.0 mm
05:09 AM 19.3°F-7.1°C 13.6°F-10.2°C 78% Calm Calm -- 30.71 in1040.0 mb 0.00 in0.0 mm 0.00 in0.0 mm 0.00 in0.0 mm
05:04 AM 19.3°F-7.1°C 13.9°F-10.1°C 79% Calm Calm -- 30.71 in1040.0 mb 0.00 in0.0 mm 0.00 in0.0 mm 0.00 in0.0 mm
04:59 AM 19.0°F-7.2°C 13.9°F-10.1°C 80% Calm Calm 1.1 mph1.8 kmh 30.71 in1040.0 mb 0.00 in0.0 mm 0.00 in0.0 mm 0.00 in0.0 mm
04:54 AM 18.8°F-7.3°C 13.7°F-10.2°C 80% 1.6 mph N2.6 kmh N 2.6 mph4.2 kmh 30.71 in1040.0 mb 0.00 in0.0 mm 0.00 in0.0 mm 0.00 in0.0 mm
04:49 AM 18.6°F-7.4°C 13.8°F-10.1°C 81% 1.7 mph NNW2.7 kmh NNW 2.1 mph3.4 kmh 30.71 in1040.0 mb 0.00 in0.0 mm 0.00 in0.0 mm 0.00 in0.0 mm
04:44 AM 18.3°F-7.6°C 12.9°F-10.6°C 79% Calm Calm -- 30.71 in1040.0 mb 0.00 in0.0 mm 0.00 in0.0 mm 0.00 in0.0 mm
04:39 AM 18.3°F-7.6°C 12.6°F-10.8°C 78% 1.7 mph NNW2.7 kmh NNW 2.6 mph4.2 kmh 30.70 in1039.6 mb 0.00 in0.0 mm 0.00 in0.0 mm 0.00 in0.0 mm
04:34 AM 18.5°F-7.5°C 12.8°F-10.7°C 78% 0.9 mph NNW1.4 kmh NNW 1.6 mph2.6 kmh 30.70 in1039.6 mb 0.00 in0.0 mm 0.00 in0.0 mm 0.00 in0.0 mm
04:29 AM 18.6°F-7.4°C 12.9°F-10.6°C 78% Calm Calm -- 30.70 in1039.6 mb 0.00 in0.0 mm 0.00 in0.0 mm 0.00 in0.0 mm
04:24 AM 18.9°F-7.3°C 12.6°F-10.8°C 76% 1.4 mph NNW2.3 kmh NNW 2.2 mph3.5 kmh 30.70 in1039.6 mb 0.00 in0.0 mm 0.00 in0.0 mm 0.00 in0.0 mm
04:19 AM 19.3°F-7.1°C 13.3°F-10.4°C 77% Calm Calm -- 30.70 in1039.6 mb 0.00 in0.0 mm 0.00 in0.0 mm 0.00 in0.0 mm
04:14 AM 19.5°F-6.9°C 13.5°F-10.3°C 77% Calm Calm -- 30.70 in1039.6 mb 0.00 in0.0 mm 0.00 in0.0 mm 0.00 in0.0 mm
04:09 AM 19.6°F-6.9°C 13.6°F-10.2°C 77% 0.1 mph NNW0.2 kmh NNW 1.1 mph1.8 kmh 30.70 in1039.6 mb 0.00 in0.0 mm 0.00 in0.0 mm 0.00 in0.0 mm
04:04 AM 19.8°F-6.8°C 13.8°F-10.1°C 77% 1.4 mph NNW2.3 kmh NNW 2.6 mph4.2 kmh 30.70 in1039.6 mb 0.00 in0.0 mm 0.00 in0.0 mm 0.00 in0.0 mm
03:59 AM 19.8°F-6.8°C 13.8°F-10.1°C 77% 1.3 mph NNW2.1 kmh NNW 1.8 mph2.9 kmh 30.69 in1039.3 mb 0.00 in0.0 mm 0.00 in0.0 mm 0.00 in0.0 mm
03:54 AM 19.8°F-6.8°C 13.2°F-10.4°C 75% 1.2 mph NNW1.9 kmh NNW 1.8 mph2.9 kmh 30.69 in1039.3 mb 0.00 in0.0 mm 0.00 in0.0 mm 0.00 in0.0 mm
03:49 AM 19.6°F-6.9°C 13.3°F-10.4°C 76% 1.6 mph NNW2.6 kmh NNW 2.1 mph3.4 kmh 30.69 in1039.3 mb 0.00 in0.0 mm 0.00 in0.0 mm 0.00 in0.0 mm
03:44 AM 19.6°F-6.9°C 13.0°F-10.6°C 75% 0.8 mph NNW1.3 kmh NNW 1.6 mph2.6 kmh 30.68 in1038.9 mb 0.00 in0.0 mm 0.00 in0.0 mm 0.00 in0.0 mm
03:39 AM 19.6°F-6.9°C 13.0°F-10.6°C 75% 1.2 mph NNW1.9 kmh NNW 1.8 mph2.9 kmh 30.68 in1038.9 mb 0.00 in0.0 mm 0.00 in0.0 mm 0.00 in0.0 mm
03:34 AM 19.6°F-6.9°C 13.6°F-10.2°C 77% 0.4 mph NNW0.6 kmh NNW 1.8 mph2.9 kmh 30.68 in1038.9 mb 0.00 in0.0 mm 0.00 in0.0 mm 0.00 in0.0 mm
03:29 AM 19.5°F-6.9°C 13.8°F-10.1°C 78% 2.1 mph N3.4 kmh N 2.6 mph4.2 kmh 30.68 in1038.9 mb 0.00 in0.0 mm 0.00 in0.0 mm 0.00 in0.0 mm
03:24 AM 19.2°F-7.1°C 14.1°F-9.9°C 80% 2.6 mph N4.2 kmh N 2.7 mph4.3 kmh 30.69 in1039.3 mb 0.00 in0.0 mm 0.00 in0.0 mm 0.00 in0.0 mm
03:19 AM 19.1°F-7.2°C 13.7°F-10.2°C 79% 1.0 mph N1.6 kmh N 1.6 mph2.6 kmh 30.68 in1038.9 mb 0.00 in0.0 mm 0.00 in0.0 mm 0.00 in0.0 mm
03:14 AM 19.3°F-7.1°C 14.2°F-9.9°C 80% Calm Calm -- 30.68 in1038.9 mb 0.00 in0.0 mm 0.00 in0.0 mm 0.00 in0.0 mm
03:09 AM 19.7°F-6.8°C 14.5°F-9.7°C 80% Calm Calm -- 30.68 in1038.9 mb 0.00 in0.0 mm 0.00 in0.0 mm 0.00 in0.0 mm
03:04 AM 19.8°F-6.8°C 14.9°F-9.5°C 81% Calm Calm -- 30.68 in1038.9 mb 0.00 in0.0 mm 0.00 in0.0 mm 0.00 in0.0 mm
02:59 AM 19.5°F-6.9°C 14.6°F-9.7°C 81% Calm Calm -- 30.68 in1038.9 mb 0.00 in0.0 mm 0.00 in0.0 mm 0.00 in0.0 mm
02:54 AM 19.5°F-6.9°C 14.4°F-9.8°C 80% Calm Calm -- 30.68 in1038.9 mb 0.00 in0.0 mm 0.00 in0.0 mm 0.00 in0.0 mm
02:49 AM 19.8°F-6.8°C 14.9°F-9.5°C 81% Calm Calm -- 30.68 in1038.9 mb 0.00 in0.0 mm 0.00 in0.0 mm 0.00 in0.0 mm
02:44 AM 20.1°F-6.6°C 15.2°F-9.3°C 81% Calm Calm -- 30.68 in1038.9 mb 0.00 in0.0 mm 0.00 in0.0 mm 0.00 in0.0 mm
02:39 AM 20.1°F-6.6°C 15.2°F-9.3°C 81% Calm Calm -- 30.68 in1038.9 mb 0.00 in0.0 mm 0.00 in0.0 mm 0.00 in0.0 mm
02:34 AM 20.1°F-6.6°C 15.5°F-9.2°C 82% Calm Calm -- 30.68 in1038.9 mb 0.00 in0.0 mm 0.00 in0.0 mm 0.00 in0.0 mm
02:29 AM 20.1°F-6.6°C 15.2°F-9.3°C 81% Calm Calm -- 30.68 in1038.9 mb 0.00 in0.0 mm 0.00 in0.0 mm 0.00 in0.0 mm
02:24 AM 20.0°F-6.7°C 14.6°F-9.7°C 79% Calm Calm -- 30.69 in1039.3 mb 0.00 in0.0 mm 0.00 in0.0 mm 0.00 in0.0 mm
02:19 AM 20.1°F-6.6°C 14.4°F-9.8°C 78% Calm Calm 1.1 mph1.8 kmh 30.69 in1039.3 mb 0.00 in0.0 mm 0.00 in0.0 mm 0.00 in0.0 mm
02:14 AM 20.1°F-6.6°C 14.4°F-9.8°C 78% Calm Calm -- 30.69 in1039.3 mb 0.00 in0.0 mm 0.00 in0.0 mm 0.00 in0.0 mm
02:09 AM 20.5°F-6.4°C 14.5°F-9.7°C 77% Calm Calm -- 30.69 in1039.3 mb 0.00 in0.0 mm 0.00 in0.0 mm 0.00 in0.0 mm
02:04 AM 21.1°F-6.1°C 15.0°F-9.4°C 77% Calm Calm -- 30.69 in1039.3 mb 0.00 in0.0 mm 0.00 in0.0 mm 0.00 in0.0 mm
01:59 AM 21.5°F-5.8°C 15.1°F-9.4°C 76% Calm Calm -- 30.69 in1039.3 mb 0.00 in0.0 mm 0.00 in0.0 mm 0.00 in0.0 mm
01:54 AM 22.0°F-5.6°C 15.3°F-9.3°C 75% Calm Calm -- 30.70 in1039.6 mb 0.00 in0.0 mm 0.00 in0.0 mm 0.00 in0.0 mm
01:49 AM 22.2°F-5.4°C 14.9°F-9.5°C 73% Calm Calm -- 30.69 in1039.3 mb 0.00 in0.0 mm 0.00 in0.0 mm 0.00 in0.0 mm
01:44 AM 22.5°F-5.3°C 14.5°F-9.7°C 71% Calm Calm -- 30.70 in1039.6 mb 0.00 in0.0 mm 0.00 in0.0 mm 0.00 in0.0 mm
01:39 AM 22.6°F-5.2°C 14.0°F-10.0°C 69% Calm Calm -- 30.69 in1039.3 mb 0.00 in0.0 mm 0.00 in0.0 mm 0.00 in0.0 mm
01:34 AM 22.8°F-5.1°C 14.2°F-9.9°C 69% Calm Calm -- 30.69 in1039.3 mb 0.00 in0.0 mm 0.00 in0.0 mm 0.00 in0.0 mm
01:29 AM 22.5°F-5.3°C 13.9°F-10.1°C 69% 1.6 mph NNW2.6 kmh NNW 2.2 mph3.5 kmh 30.69 in1039.3 mb 0.00 in0.0 mm 0.00 in0.0 mm 0.00 in0.0 mm
01:24 AM 22.3°F-5.4°C 13.7°F-10.2°C 69% 1.7 mph NNW2.7 kmh NNW 2.2 mph3.5 kmh 30.68 in1038.9 mb 0.00 in0.0 mm 0.00 in0.0 mm 0.00 in0.0 mm
01:19 AM 22.3°F-5.4°C 13.7°F-10.2°C 69% Calm Calm -- 30.68 in1038.9 mb 0.00 in0.0 mm 0.00 in0.0 mm 0.00 in0.0 mm
01:14 AM 22.4°F-5.3°C 13.8°F-10.1°C 69% 1.8 mph NNW2.9 kmh NNW 2.1 mph3.4 kmh 30.68 in1038.9 mb 0.00 in0.0 mm 0.00 in0.0 mm 0.00 in0.0 mm
01:09 AM 23.0°F-5.0°C 14.0°F-10.0°C 68% 0.4 mph NNW0.6 kmh NNW 1.6 mph2.6 kmh 30.68 in1038.9 mb 0.00 in0.0 mm 0.00 in0.0 mm 0.00 in0.0 mm
01:04 AM 23.0°F-5.0°C 14.4°F-9.8°C 69% 1.7 mph NNW2.7 kmh NNW 2.2 mph3.5 kmh 30.68 in1038.9 mb 0.00 in0.0 mm 0.00 in0.0 mm 0.00 in0.0 mm
12:59 AM 22.8°F-5.1°C 14.2°F-9.9°C 69% 1.8 mph NNW2.9 kmh NNW 2.6 mph4.2 kmh 30.67 in1038.6 mb 0.00 in0.0 mm 0.00 in0.0 mm 0.00 in0.0 mm
12:54 AM 22.8°F-5.1°C 13.8°F-10.1°C 68% 2.0 mph NNW3.2 kmh NNW 2.7 mph4.3 kmh 30.68 in1038.9 mb 0.00 in0.0 mm 0.00 in0.0 mm 0.00 in0.0 mm
12:49 AM 23.1°F-4.9°C 14.1°F-9.9°C 68% 2.2 mph NNW3.5 kmh NNW 2.7 mph4.3 kmh 30.68 in1038.9 mb 0.00 in0.0 mm 0.00 in0.0 mm 0.00 in0.0 mm
12:44 AM 23.3°F-4.8°C 14.0°F-10.0°C 67% 1.9 mph NNW3.1 kmh NNW 2.1 mph3.4 kmh 30.67 in1038.6 mb 0.00 in0.0 mm 0.00 in0.0 mm 0.00 in0.0 mm
12:39 AM 23.5°F-4.7°C 13.8°F-10.1°C 66% 2.0 mph N3.2 kmh N 2.6 mph4.2 kmh 30.67 in1038.6 mb 0.00 in0.0 mm 0.00 in0.0 mm 0.00 in0.0 mm
12:34 AM 23.6°F-4.7°C 13.2°F-10.4°C 64% 1.5 mph N2.4 kmh N 1.8 mph2.9 kmh 30.66 in1038.3 mb 0.00 in0.0 mm 0.00 in0.0 mm 0.00 in0.0 mm
12:29 AM 23.7°F-4.6°C 13.3°F-10.4°C 64% 1.4 mph N2.3 kmh N 1.8 mph2.9 kmh 30.66 in1038.3 mb 0.00 in0.0 mm 0.00 in0.0 mm 0.00 in0.0 mm
12:24 AM 23.8°F-4.6°C 13.1°F-10.5°C 63% 1.0 mph N1.6 kmh N 1.8 mph2.9 kmh 30.66 in1038.3 mb 0.00 in0.0 mm 0.00 in0.0 mm 0.00 in0.0 mm
12:19 AM 24.0°F-4.4°C 12.9°F-10.6°C 62% 1.9 mph N3.1 kmh N 2.2 mph3.5 kmh 30.67 in1038.6 mb 0.00 in0.0 mm 0.00 in0.0 mm 0.00 in0.0 mm
12:14 AM 24.1°F-4.4°C 13.0°F-10.6°C 62% 1.8 mph N2.9 kmh N 2.2 mph3.5 kmh 30.67 in1038.6 mb 0.00 in0.0 mm 0.00 in0.0 mm 0.00 in0.0 mm
12:09 AM 24.4°F-4.2°C 13.3°F-10.4°C 62% Calm Calm -- 30.66 in1038.3 mb 0.00 in0.0 mm 0.00 in0.0 mm 0.00 in0.0 mm
12:04 AM 24.6°F-4.1°C 13.1°F-10.5°C 61% 2.0 mph NNW3.2 kmh NNW 2.7 mph4.3 kmh 30.67 in1038.6 mb 0.00 in0.0 mm 0.00 in0.0 mm 0.00 in0.0 mm